Time;durP1;ratioP1;P1;durP2;ratioP2;P2;SDS_P1;SDS_P2;PMS_P1;PMS_P2;Temp;Humidity;BMP_temperature;BMP_pressure;BME280_temperature;BME280_humidity;BME280_pressure;Samples;Min_cycle;Max_cycle;Signal;HPM_P1;HPM_P2
2023/07/04 00:00:43;;;;;;;24.45;9.93;;;;;;;;;;8270639;28;20133;-91
2023/07/04 00:05:08;;;;;;;17.98;9.80;;;;;;;;;;8257305;28;20105;-91
2023/07/04 00:09:11;;;;;;;22.02;10.57;;;;;;;;;;8270537;28;20137;-91
2023/07/04 00:13:14;;;;;;;21.05;10.00;;;;;;;;;;8270233;28;20054;-91
2023/07/04 00:17:18;;;;;;;17.50;9.60;;;;;;;;;;8257528;28;20058;-91
2023/07/04 00:21:24;;;;;;;18.27;9.57;;;;;;;;;;8266132;28;20462;-91
2023/07/04 00:25:26;;;;;;;21.08;9.82;;;;;;;;;;8261935;28;20544;-91
2023/07/04 00:29:29;;;;;;;19.23;9.63;;;;;;;;;;8256733;28;20053;-91
2023/07/04 00:33:33;;;;;;;24.05;9.02;;;;;;;;;;8258362;28;20511;-90
2023/07/04 00:37:37;;;;;;;20.00;9.43;;;;;;;;;;8262324;28;20047;-91
2023/07/04 00:41:40;;;;;;;18.40;9.43;;;;;;;;;;8261943;28;20060;-92
2023/07/04 00:45:44;;;;;;;22.20;10.10;;;;;;;;;;8258364;28;20137;-86
2023/07/04 00:49:50;;;;;;;22.15;9.85;;;;;;;;;;8267738;28;20069;-90
2023/07/04 00:53:56;;;;;;;19.85;9.73;;;;;;;;;;8267016;28;20069;-88
2023/07/04 00:57:58;;;;;;;18.58;8.95;;;;;;;;;;8267278;28;20096;-90
2023/07/04 01:02:02;;;;;;;19.67;9.75;;;;;;;;;;8267196;28;20104;-87
2023/07/04 01:06:13;;;;;;;21.30;10.25;;;;;;;;;;8265746;28;20070;-85
2023/07/04 01:10:23;;;;;;;19.85;9.77;;;;;;;;;;8267750;28;20085;-90
2023/07/04 01:14:27;;;;;;;19.52;10.10;;;;;;;;;;8267572;28;20074;-90
2023/07/04 01:18:32;;;;;;;22.13;11.02;;;;;;;;;;8267306;28;20101;-89
2023/07/04 01:22:41;;;;;;;21.25;10.15;;;;;;;;;;8267063;28;20494;-91
2023/07/04 01:26:49;;;;;;;18.35;9.48;;;;;;;;;;8266828;28;20189;-89
2023/07/04 01:30:52;;;;;;;18.05;10.02;;;;;;;;;;8266636;28;20080;-86
2023/07/04 01:34:58;;;;;;;23.50;10.25;;;;;;;;;;8267161;28;20449;-89
2023/07/04 01:39:02;;;;;;;24.08;10.10;;;;;;;;;;8263776;28;20133;-89
2023/07/04 01:43:06;;;;;;;22.30;10.10;;;;;;;;;;8256603;28;20062;-88
2023/07/04 01:47:09;;;;;;;22.52;9.80;;;;;;;;;;8266297;28;20065;-90
2023/07/04 01:51:12;;;;;;;21.20;10.40;;;;;;;;;;8265978;28;20058;-90
2023/07/04 01:55:15;;;;;;;21.20;9.40;;;;;;;;;;8253472;28;20591;-87
2023/07/04 01:59:21;;;;;;;19.13;9.30;;;;;;;;;;8257563;28;20082;-88
2023/07/04 02:03:24;;;;;;;20.40;10.00;;;;;;;;;;8260283;28;20509;-89
2023/07/04 02:07:26;;;;;;;15.15;8.63;;;;;;;;;;8255082;28;20082;-89
2023/07/04 02:11:29;;;;;;;21.83;10.38;;;;;;;;;;8265461;28;20065;-91
2023/07/04 02:15:34;;;;;;;17.40;9.13;;;;;;;;;;8266272;28;20046;-90
2023/07/04 02:19:36;;;;;;;19.13;9.07;;;;;;;;;;8265357;28;20058;-88
2023/07/04 02:23:39;;;;;;;20.75;9.57;;;;;;;;;;8263617;28;20133;-90
2023/07/04 02:27:42;;;;;;;18.08;9.23;;;;;;;;;;8261256;28;20059;-87
2023/07/04 02:31:46;;;;;;;15.52;8.98;;;;;;;;;;8265254;28;20058;-90
2023/07/04 02:35:50;;;;;;;18.20;8.10;;;;;;;;;;8265396;28;20060;-89
2023/07/04 02:39:54;;;;;;;18.63;9.13;;;;;;;;;;8264968;28;20068;-87
2023/07/04 02:43:57;;;;;;;18.35;8.90;;;;;;;;;;8265053;28;20050;-89
2023/07/04 02:48:02;;;;;;;18.67;9.52;;;;;;;;;;8265064;28;20054;-90
2023/07/04 02:52:05;;;;;;;19.30;8.63;;;;;;;;;;8264568;28;20133;-90
2023/07/04 02:56:11;;;;;;;19.88;9.48;;;;;;;;;;8264937;28;20054;-90
2023/07/04 03:00:14;;;;;;;16.77;8.98;;;;;;;;;;8264653;28;20054;-90
2023/07/04 03:04:19;;;;;;;18.20;8.88;;;;;;;;;;8269889;28;20395;-90
2023/07/04 03:08:22;;;;;;;16.00;8.60;;;;;;;;;;8271952;28;20042;-90
2023/07/04 03:12:25;;;;;;;19.45;9.13;;;;;;;;;;8271308;28;20393;-87
2023/07/04 03:16:28;;;;;;;18.13;9.30;;;;;;;;;;8258056;28;20054;-90
2023/07/04 03:20:32;;;;;;;16.67;9.27;;;;;;;;;;8270756;28;20591;-87
2023/07/04 03:24:35;;;;;;;20.50;8.93;;;;;;;;;;8270504;28;20120;-87
2023/07/04 03:28:38;;;;;;;17.35;8.68;;;;;;;;;;8270814;28;20409;-86
2023/07/04 03:32:41;;;;;;;16.25;8.93;;;;;;;;;;8260891;28;20069;-90
2023/07/04 03:36:45;;;;;;;17.02;8.63;;;;;;;;;;8270177;28;20050;-90
2023/07/04 03:40:48;;;;;;;20.60;9.10;;;;;;;;;;8270150;28;20166;-89
2023/07/04 03:44:51;;;;;;;16.63;8.38;;;;;;;;;;8269819;28;20050;-89
2023/07/04 03:48:54;;;;;;;17.17;8.55;;;;;;;;;;8269637;28;20043;-90
2023/07/04 03:52:58;;;;;;;15.85;8.95;;;;;;;;;;8265509;28;20054;-90
2023/07/04 03:57:02;;;;;;;19.65;8.93;;;;;;;;;;8258178;28;20441;-89
2023/07/04 04:01:06;;;;;;;34.03;15.35;;;;;;;;;;8269500;28;20050;-90
2023/07/04 04:05:09;;;;;;;23.05;10.60;;;;;;;;;;8260138;28;20510;-89
2023/07/04 04:09:13;;;;;;;18.38;9.52;;;;;;;;;;8246553;28;20641;-91
2023/07/04 04:13:16;;;;;;;18.52;9.50;;;;;;;;;;8266583;28;20098;-90
2023/07/04 04:17:19;;;;;;;18.20;8.40;;;;;;;;;;8248222;28;20055;-90
2023/07/04 04:21:22;;;;;;;16.55;8.07;;;;;;;;;;8238150;28;20061;-83
2023/07/04 04:25:27;;;;;;;25.20;9.18;;;;;;;;;;8256836;28;20061;-88
2023/07/04 04:29:30;;;;;;;17.30;9.20;;;;;;;;;;8254343;28;20089;-90
2023/07/04 04:33:33;;;;;;;22.23;8.75;;;;;;;;;;8263212;28;20062;-92
2023/07/04 04:37:36;;;;;;;19.42;9.20;;;;;;;;;;8265231;28;20061;-83
2023/07/04 04:41:42;;;;;;;17.00;9.10;;;;;;;;;;8258974;28;20070;-87
2023/07/04 04:45:47;;;;;;;17.95;9.02;;;;;;;;;;8261455;28;20058;-90
2023/07/04 04:49:50;;;;;;;20.25;9.10;;;;;;;;;;8255066;28;20133;-90
2023/07/04 04:53:53;;;;;;;17.35;8.35;;;;;;;;;;8248895;28;20085;-82
2023/07/04 04:57:57;;;;;;;17.80;9.60;;;;;;;;;;8238662;28;20088;-86
2023/07/04 05:02:00;;;;;;;20.10;10.05;;;;;;;;;;8266385;28;20115;-89
2023/07/04 05:06:04;;;;;;;17.23;9.23;;;;;;;;;;8254786;28;20457;-91
2023/07/04 05:10:10;;;;;;;14.20;8.77;;;;;;;;;;8266770;28;20082;-90
2023/07/04 05:14:15;;;;;;;17.48;8.65;;;;;;;;;;8244264;28;20074;-89
2023/07/04 05:18:18;;;;;;;20.67;9.35;;;;;;;;;;8253159;28;20065;-86
2023/07/04 05:22:21;;;;;;;14.15;8.73;;;;;;;;;;8256582;28;20133;-92
2023/07/04 05:26:26;;;;;;;18.50;9.02;;;;;;;;;;8251973;28;20082;-84
2023/07/04 05:30:31;;;;;;;17.52;8.52;;;;;;;;;;8265578;28;20116;-86
2023/07/04 05:34:33;;;;;;;17.52;9.40;;;;;;;;;;8248431;28;20046;-83
2023/07/04 05:38:37;;;;;;;15.02;9.73;;;;;;;;;;8258961;28;20125;-84
2023/07/04 05:42:41;;;;;;;19.23;9.65;;;;;;;;;;8246541;28;20050;-87
2023/07/04 05:46:45;;;;;;;15.23;8.73;;;;;;;;;;8240448;28;20054;-89
2023/07/04 05:50:52;;;;;;;14.48;9.38;;;;;;;;;;8250247;28;20054;-92
2023/07/04 05:54:55;;;;;;;13.57;8.98;;;;;;;;;;8243388;28;20137;-83
2023/07/04 05:59:00;;;;;;;15.65;9.10;;;;;;;;;;8247642;28;20113;-90
2023/07/04 06:03:05;;;;;;;15.75;8.55;;;;;;;;;;8248806;28;20055;-88
2023/07/04 06:07:08;;;;;;;16.67;8.80;;;;;;;;;;8235011;28;20503;-85
2023/07/04 06:11:11;;;;;;;13.98;8.85;;;;;;;;;;8247149;28;20420;-83
2023/07/04 06:15:15;;;;;;;13.30;8.63;;;;;;;;;;8249875;28;20054;-82
2023/07/04 06:19:20;;;;;;;18.60;8.93;;;;;;;;;;8263389;28;20507;-85
2023/07/04 06:23:23;;;;;;;15.98;8.35;;;;;;;;;;8261221;28;20059;-91
2023/07/04 06:27:28;;;;;;;15.90;9.25;;;;;;;;;;8238264;28;20050;-90
2023/07/04 06:31:31;;;;;;;13.23;8.20;;;;;;;;;;8263572;28;20061;-90
2023/07/04 06:35:41;;;;;;;16.88;8.63;;;;;;;;;;8263982;28;20505;-90
2023/07/04 06:39:44;;;;;;;18.23;8.90;;;;;;;;;;8251684;28;20418;-90
2023/07/04 06:43:48;;;;;;;14.02;8.30;;;;;;;;;;8264439;28;20073;-90
2023/07/04 06:47:51;;;;;;;13.65;7.75;;;;;;;;;;8265010;28;20137;-88
2023/07/04 06:51:55;;;;;;;12.20;6.90;;;;;;;;;;8264799;28;20141;-92
2023/07/04 06:56:05;;;;;;;11.80;6.50;;;;;;;;;;8264836;28;20054;-93
2023/07/04 07:00:09;;;;;;;17.90;7.45;;;;;;;;;;8262401;28;20058;-90
2023/07/04 07:04:15;;;;;;;14.45;6.15;;;;;;;;;;8262576;28;20073;-92
2023/07/04 07:08:19;;;;;;;14.85;6.32;;;;;;;;;;8252551;28;20411;-89
2023/07/04 07:12:22;;;;;;;8.73;5.05;;;;;;;;;;8266996;28;20089;-93
2023/07/04 07:16:26;;;;;;;12.85;5.30;;;;;;;;;;8266733;28;20050;-86
2023/07/04 07:20:29;;;;;;;9.27;4.53;;;;;;;;;;8269004;28;20054;-88
2023/07/04 07:24:33;;;;;;;11.38;4.97;;;;;;;;;;8245721;28;20050;-86
2023/07/04 07:28:38;;;;;;;13.02;4.30;;;;;;;;;;8244047;28;20061;-83
2023/07/04 07:32:41;;;;;;;8.65;4.22;;;;;;;;;;8231284;28;20142;-92
2023/07/04 07:36:45;;;;;;;10.75;4.20;;;;;;;;;;8231537;28;20142;-91
2023/07/04 07:40:52;;;;;;;7.90;4.13;;;;;;;;;;8242417;28;20077;-92
2023/07/04 07:44:55;;;;;;;7.43;4.10;;;;;;;;;;8246011;28;20065;-90
2023/07/04 07:48:59;;;;;;;9.27;3.85;;;;;;;;;;8255643;28;20129;-91
2023/07/04 07:53:02;;;;;;;8.20;4.20;;;;;;;;;;8247177;28;20055;-89
2023/07/04 07:57:07;;;;;;;11.93;4.88;;;;;;;;;;8261432;28;20129;-91
2023/07/04 08:01:11;;;;;;;8.35;4.40;;;;;;;;;;8252420;28;20113;-89
2023/07/04 08:05:17;;;;;;;9.98;4.63;;;;;;;;;;8267869;28;20058;-92
2023/07/04 08:09:28;;;;;;;9.40;4.50;;;;;;;;;;8262812;28;20137;-87
2023/07/04 08:13:33;;;;;;;12.30;4.40;;;;;;;;;;8248767;28;20090;-85
2023/07/04 08:17:37;;;;;;;9.20;4.85;;;;;;;;;;8260471;28;20109;-93
2023/07/04 08:21:42;;;;;;;12.35;5.45;;;;;;;;;;8261103;28;20170;-86
2023/07/04 08:25:45;;;;;;;9.65;4.50;;;;;;;;;;8246682;28;20145;-92
2023/07/04 08:29:49;;;;;;;9.30;4.55;;;;;;;;;;8245759;28;20061;-90
2023/07/04 08:33:55;;;;;;;12.25;4.80;;;;;;;;;;8237548;28;20082;-90
2023/07/04 08:37:59;;;;;;;12.60;5.15;;;;;;;;;;8254687;28;20081;-88
2023/07/04 08:42:05;;;;;;;11.88;5.47;;;;;;;;;;8247855;28;20479;-85
2023/07/04 08:46:13;;;;;;;10.13;4.80;;;;;;;;;;8245195;28;20451;-93
2023/07/04 08:50:23;;;;;;;9.65;4.65;;;;;;;;;;8216372;28;20149;-92
2023/07/04 08:54:33;;;;;;;12.98;4.75;;;;;;;;;;8247431;28;20125;-89
2023/07/04 08:58:50;;;;;;;9.48;4.90;;;;;;;;;;8235892;28;20062;-91
2023/07/04 09:03:19;;;;;;;9.35;5.07;;;;;;;;;;8236981;28;20059;-91
2023/07/04 09:07:29;;;;;;;12.50;5.28;;;;;;;;;;8249454;28;20137;-86
2023/07/04 09:11:33;;;;;;;10.60;4.80;;;;;;;;;;8261585;28;20089;-86
2023/07/04 09:15:39;;;;;;;10.48;5.15;;;;;;;;;;8255306;28;20058;-88
2023/07/04 09:19:47;;;;;;;11.07;5.00;;;;;;;;;;8251595;28;20058;-90
2023/07/04 09:23:52;;;;;;;11.02;5.22;;;;;;;;;;8261210;28;20054;-87
2023/07/04 09:27:55;;;;;;;11.43;4.78;;;;;;;;;;8251774;28;20141;-88
2023/07/04 09:32:01;;;;;;;10.35;4.70;;;;;;;;;;8246384;28;20149;-92
2023/07/04 09:36:06;;;;;;;8.73;4.25;;;;;;;;;;8255035;28;20541;-84
2023/07/04 09:40:10;;;;;;;8.93;4.00;;;;;;;;;;8242275;28;20148;-89
2023/07/04 09:44:17;;;;;;;6.90;3.53;;;;;;;;;;8241989;28;20057;-89
2023/07/04 09:48:25;;;;;;;7.20;3.38;;;;;;;;;;8244596;28;20145;-86
2023/07/04 09:52:30;;;;;;;5.75;3.00;;;;;;;;;;8262882;28;20051;-86
2023/07/04 09:56:32;;;;;;;6.78;3.28;;;;;;;;;;8263807;28;20534;-87
2023/07/04 10:00:36;;;;;;;7.18;3.78;;;;;;;;;;8263493;28;20129;-82
2023/07/04 10:04:40;;;;;;;8.75;3.80;;;;;;;;;;8242486;28;20082;-83
2023/07/04 10:08:53;;;;;;;7.57;3.72;;;;;;;;;;8258127;28;20077;-89
2023/07/04 10:12:58;;;;;;;8.88;4.20;;;;;;;;;;8235869;28;20133;-84
2023/07/04 10:17:11;;;;;;;10.15;3.83;;;;;;;;;;8236783;28;20138;-82
2023/07/04 10:21:14;;;;;;;10.07;3.95;;;;;;;;;;8244974;28;20050;-89
2023/07/04 10:25:21;;;;;;;10.27;4.20;;;;;;;;;;8262322;28;20057;-89
2023/07/04 10:29:36;;;;;;;11.00;4.00;;;;;;;;;;8267851;28;20053;-87
2023/07/04 10:33:44;;;;;;;9.45;3.58;;;;;;;;;;8235019;28;20046;-83
2023/07/04 10:38:08;;;;;;;9.55;3.95;;;;;;;;;;8215373;28;20093;-82
2023/07/04 10:42:20;;;;;;;10.93;4.43;;;;;;;;;;8206794;28;20054;-86
2023/07/04 10:46:26;;;;;;;10.80;4.38;;;;;;;;;;8214880;28;20117;-88
2023/07/04 10:50:33;;;;;;;8.07;3.78;;;;;;;;;;8199695;28;20074;-84
2023/07/04 10:54:36;;;;;;;9.70;4.00;;;;;;;;;;8210246;28;20062;-88
2023/07/04 10:58:52;;;;;;;10.32;4.43;;;;;;;;;;8209365;28;20059;-88
2023/07/04 11:03:01;;;;;;;8.68;4.03;;;;;;;;;;8203005;28;20061;-89
2023/07/04 11:07:08;;;;;;;9.60;4.22;;;;;;;;;;8205180;28;20582;-88
2023/07/04 11:11:13;;;;;;;7.35;4.03;;;;;;;;;;8217407;28;20055;-88
2023/07/04 11:15:27;;;;;;;9.10;4.28;;;;;;;;;;8203534;28;20047;-89
2023/07/04 11:19:32;;;;;;;9.52;4.45;;;;;;;;;;8235348;28;20081;-90
2023/07/04 11:23:46;;;;;;;9.25;4.97;;;;;;;;;;8225046;28;20090;-88
2023/07/04 11:28:14;;;;;;;10.52;4.82;;;;;;;;;;8215530;28;20050;-89
2023/07/04 11:32:22;;;;;;;8.30;4.53;;;;;;;;;;8253606;28;20086;-89
2023/07/04 11:36:28;;;;;;;7.30;4.60;;;;;;;;;;8269662;28;20622;-90
2023/07/04 11:40:33;;;;;;;12.95;5.65;;;;;;;;;;8253375;28;20104;-89
2023/07/04 11:44:48;;;;;;;9.95;4.85;;;;;;;;;;8260399;28;20051;-89
2023/07/04 11:48:59;;;;;;;13.70;5.50;;;;;;;;;;8249938;28;20074;-90
2023/07/04 11:53:04;;;;;;;11.10;5.03;;;;;;;;;;8237056;28;20383;-88
2023/07/04 11:57:08;;;;;;;15.60;6.20;;;;;;;;;;8242401;28;20047;-91
2023/07/04 12:01:12;;;;;;;9.52;5.70;;;;;;;;;;8250859;28;20054;-86
2023/07/04 12:05:33;;;;;;;9.82;5.43;;;;;;;;;;8236684;28;20515;-89
2023/07/04 12:09:43;;;;;;;10.13;5.75;;;;;;;;;;8249776;28;20542;-89
2023/07/04 12:13:50;;;;;;;10.73;5.93;;;;;;;;;;8266833;28;20058;-89
2023/07/04 12:17:54;;;;;;;12.73;5.00;;;;;;;;;;8268384;28;20067;-89
2023/07/04 12:21:59;;;;;;;8.38;5.07;;;;;;;;;;8267843;28;20085;-89
2023/07/04 12:26:02;;;;;;;14.48;5.80;;;;;;;;;;8268006;28;20062;-90
2023/07/04 12:30:09;;;;;;;11.27;5.38;;;;;;;;;;8267721;28;20046;-90
2023/07/04 12:34:11;;;;;;;11.43;5.47;;;;;;;;;;8249708;28;20517;-89
2023/07/04 12:38:18;;;;;;;9.88;5.22;;;;;;;;;;8267625;28;20054;-88
2023/07/04 12:42:29;;;;;;;8.05;4.68;;;;;;;;;;8267634;28;20058;-88
2023/07/04 12:46:35;;;;;;;14.40;6.07;;;;;;;;;;8269126;28;20046;-86
2023/07/04 12:50:49;;;;;;;10.95;5.18;;;;;;;;;;8253948;28;20133;-89
2023/07/04 12:54:54;;;;;;;11.18;6.03;;;;;;;;;;8265226;28;20062;-87
2023/07/04 12:58:57;;;;;;;13.95;5.60;;;;;;;;;;8266776;28;20141;-86
2023/07/04 13:03:03;;;;;;;10.95;5.72;;;;;;;;;;8264144;28;20074;-87
2023/07/04 13:07:06;;;;;;;15.38;5.32;;;;;;;;;;8245381;28;20399;-87
2023/07/04 13:11:11;;;;;;;10.23;5.50;;;;;;;;;;8248407;28;20054;-89
2023/07/04 13:15:23;;;;;;;9.65;4.97;;;;;;;;;;8248249;28;20475;-90
2023/07/04 13:19:26;;;;;;;10.13;5.10;;;;;;;;;;8261381;28;20079;-85
2023/07/04 13:23:33;;;;;;;12.40;5.47;;;;;;;;;;8252790;28;20054;-89
2023/07/04 13:27:37;;;;;;;10.65;5.68;;;;;;;;;;8264880;28;20060;-91
2023/07/04 13:31:41;;;;;;;12.55;6.75;;;;;;;;;;8275066;28;20501;-88
2023/07/04 13:35:43;;;;;;;14.13;7.20;;;;;;;;;;8269786;28;20145;-89
2023/07/04 13:39:47;;;;;;;10.55;5.85;;;;;;;;;;8265501;28;20137;-88
2023/07/04 13:43:51;;;;;;;20.00;6.10;;;;;;;;;;8265390;28;20058;-88
2023/07/04 13:47:54;;;;;;;10.50;6.13;;;;;;;;;;8265291;28;20062;-86
2023/07/04 13:51:57;;;;;;;10.88;6.38;;;;;;;;;;8265213;28;20078;-87
2023/07/04 13:56:00;;;;;;;9.98;5.95;;;;;;;;;;8265179;28;20129;-86
2023/07/04 14:00:07;;;;;;;12.25;6.25;;;;;;;;;;8265205;28;20057;-85
2023/07/04 14:04:09;;;;;;;11.48;6.18;;;;;;;;;;8265028;28;20181;-88
2023/07/04 14:08:12;;;;;;;10.48;5.80;;;;;;;;;;8265283;28;20105;-89
2023/07/04 14:12:15;;;;;;;10.43;5.65;;;;;;;;;;8262890;28;20522;-87
2023/07/04 14:16:23;;;;;;;10.23;5.57;;;;;;;;;;8265754;28;20402;-86
2023/07/04 14:20:26;;;;;;;11.57;5.90;;;;;;;;;;8270483;28;20409;-88
2023/07/04 14:24:29;;;;;;;13.10;5.80;;;;;;;;;;8279268;28;20054;-89
2023/07/04 14:28:32;;;;;;;11.13;5.85;;;;;;;;;;8264469;28;20046;-88
2023/07/04 14:32:37;;;;;;;11.50;6.28;;;;;;;;;;8262789;28;20133;-88
2023/07/04 14:36:40;;;;;;;10.93;5.68;;;;;;;;;;8273145;28;20193;-89
2023/07/04 14:40:45;;;;;;;12.07;6.15;;;;;;;;;;8238272;28;20050;-88
2023/07/04 14:44:48;;;;;;;12.07;6.53;;;;;;;;;;8239636;28;20141;-83
2023/07/04 14:48:52;;;;;;;12.15;5.97;;;;;;;;;;8262391;28;20065;-88
2023/07/04 14:52:55;;;;;;;9.85;6.28;;;;;;;;;;8236306;28;20066;-85
2023/07/04 14:56:58;;;;;;;12.00;5.95;;;;;;;;;;8253621;28;20137;-87
2023/07/04 15:01:03;;;;;;;11.95;6.40;;;;;;;;;;8248980;28;20085;-85
2023/07/04 15:05:08;;;;;;;12.02;6.70;;;;;;;;;;8253759;28;20050;-88
2023/07/04 15:09:11;;;;;;;9.23;6.05;;;;;;;;;;8250684;28;20057;-88
2023/07/04 15:13:14;;;;;;;11.18;6.80;;;;;;;;;;8252353;28;20141;-86
2023/07/04 15:17:17;;;;;;;13.38;7.35;;;;;;;;;;8259538;28;20054;-87
2023/07/04 15:21:21;;;;;;;12.25;6.95;;;;;;;;;;8257414;28;20055;-87
2023/07/04 15:25:24;;;;;;;13.05;7.57;;;;;;;;;;8258096;28;20565;-88
2023/07/04 15:29:27;;;;;;;12.48;7.63;;;;;;;;;;8263427;28;20050;-87
2023/07/04 15:33:30;;;;;;;13.68;7.63;;;;;;;;;;8266711;28;20410;-89
2023/07/04 15:37:34;;;;;;;13.05;8.77;;;;;;;;;;8269999;28;20145;-89
2023/07/04 15:41:38;;;;;;;14.65;8.82;;;;;;;;;;8269632;28;20113;-88
2023/07/04 15:45:40;;;;;;;13.57;8.50;;;;;;;;;;8269353;28;20054;-86
2023/07/04 15:49:44;;;;;;;14.75;9.00;;;;;;;;;;8266824;28;20058;-88
2023/07/04 15:53:49;;;;;;;15.05;9.50;;;;;;;;;;8250099;28;20504;-90
2023/07/04 15:57:51;;;;;;;15.52;9.52;;;;;;;;;;8265130;28;20085;-87
2023/07/04 16:01:55;;;;;;;14.50;8.82;;;;;;;;;;8259785;28;20473;-87
2023/07/04 16:05:59;;;;;;;17.20;9.15;;;;;;;;;;8259330;28;20062;-82
2023/07/04 16:10:04;;;;;;;13.57;8.88;;;;;;;;;;8255257;28;20058;-82
2023/07/04 16:14:07;;;;;;;16.98;8.77;;;;;;;;;;8247155;28;20159;-85
2023/07/04 16:18:11;;;;;;;15.13;7.72;;;;;;;;;;8239036;28;20054;-89
2023/07/04 16:22:14;;;;;;;12.23;7.32;;;;;;;;;;8255006;28;20430;-85
2023/07/04 16:26:19;;;;;;;13.07;7.25;;;;;;;;;;8264670;28;20482;-89
2023/07/04 16:30:22;;;;;;;13.55;7.50;;;;;;;;;;8261514;28;20070;-86
2023/07/04 16:34:26;;;;;;;12.98;7.68;;;;;;;;;;8255202;28;20125;-89
2023/07/04 16:38:29;;;;;;;16.40;10.20;;;;;;;;;;8267645;28;20065;-89
2023/07/04 16:42:34;;;;;;;13.60;10.35;;;;;;;;;;8261666;28;20074;-84
2023/07/04 16:46:38;;;;;;;12.43;10.02;;;;;;;;;;8244094;28;20078;-88
2023/07/04 16:50:41;;;;;;;13.93;7.15;;;;;;;;;;8245242;28;20130;-87
2023/07/04 16:54:44;;;;;;;12.20;6.22;;;;;;;;;;8266948;28;20513;-88
2023/07/04 16:58:48;;;;;;;7.75;4.55;;;;;;;;;;8265507;28;20058;-88
2023/07/04 17:02:51;;;;;;;8.32;4.40;;;;;;;;;;8240565;28;20517;-84
2023/07/04 17:06:54;;;;;;;10.63;4.40;;;;;;;;;;8251628;28;20069;-85
2023/07/04 17:10:57;;;;;;;9.32;4.78;;;;;;;;;;8248597;28;20066;-86
2023/07/04 17:15:02;;;;;;;8.30;4.30;;;;;;;;;;8249721;28;20055;-85
2023/07/04 17:19:05;;;;;;;8.90;4.38;;;;;;;;;;8244744;28;20514;-88
2023/07/04 17:23:08;;;;;;;7.65;3.75;;;;;;;;;;8236006;28;20062;-86
2023/07/04 17:27:11;;;;;;;8.10;3.55;;;;;;;;;;8242843;28;20054;-87
2023/07/04 17:31:16;;;;;;;8.57;3.90;;;;;;;;;;8248099;28;20676;-86
2023/07/04 17:35:19;;;;;;;6.85;3.97;;;;;;;;;;8248214;28;20065;-89
2023/07/04 17:39:22;;;;;;;8.45;4.00;;;;;;;;;;8247281;28;20141;-87
2023/07/04 17:43:27;;;;;;;7.50;3.60;;;;;;;;;;8249047;28;20154;-86
2023/07/04 17:47:33;;;;;;;8.05;3.55;;;;;;;;;;8256547;28;20066;-85
2023/07/04 17:51:36;;;;;;;5.38;3.00;;;;;;;;;;8256018;28;20110;-88
2023/07/04 17:55:40;;;;;;;4.72;2.95;;;;;;;;;;8254782;28;20089;-88
2023/07/04 17:59:45;;;;;;;7.20;3.13;;;;;;;;;;8254405;28;20059;-88
2023/07/04 18:03:53;;;;;;;6.05;2.97;;;;;;;;;;8245340;28;20134;-87
2023/07/04 18:07:57;;;;;;;7.22;3.35;;;;;;;;;;8243406;28;20547;-84
2023/07/04 18:12:01;;;;;;;5.50;3.03;;;;;;;;;;8249263;28;20145;-88
2023/07/04 18:16:05;;;;;;;11.52;3.45;;;;;;;;;;8253669;28;20686;-87
2023/07/04 18:20:13;;;;;;;11.93;3.63;;;;;;;;;;8244351;28;20064;-87
2023/07/04 18:24:17;;;;;;;9.38;3.63;;;;;;;;;;8258499;28;20093;-89
2023/07/04 18:28:20;;;;;;;9.82;3.70;;;;;;;;;;8255592;28;20165;-88
2023/07/04 18:32:24;;;;;;;9.60;3.40;;;;;;;;;;8247685;28;20433;-89
2023/07/04 18:36:31;;;;;;;5.82;2.97;;;;;;;;;;8260151;28;20074;-83
2023/07/04 18:40:40;;;;;;;8.65;3.78;;;;;;;;;;8258622;28;20070;-82
2023/07/04 18:44:43;;;;;;;7.88;3.13;;;;;;;;;;8273856;28;20208;-84
2023/07/04 18:48:47;;;;;;;6.40;3.60;;;;;;;;;;8270231;28;20058;-89
2023/07/04 18:52:52;;;;;;;9.23;3.72;;;;;;;;;;8260250;28;20134;-82
2023/07/04 18:56:55;;;;;;;10.02;3.72;;;;;;;;;;8256393;28;20538;-88
2023/07/04 19:01:09;;;;;;;12.68;6.53;;;;;;;;;;8263795;28;20525;-87
2023/07/04 19:05:13;;;;;;;11.27;7.28;;;;;;;;;;8270160;28;20046;-85
2023/07/04 19:09:19;;;;;;;9.00;5.10;;;;;;;;;;8264293;28;20487;-87
2023/07/04 19:13:24;;;;;;;9.35;5.43;;;;;;;;;;8257898;28;20058;-88
2023/07/04 19:17:27;;;;;;;13.90;6.68;;;;;;;;;;8250935;28;20057;-84
2023/07/04 19:21:31;;;;;;;11.48;6.18;;;;;;;;;;8240979;28;20062;-87
2023/07/04 19:25:40;;;;;;;7.75;4.88;;;;;;;;;;8248877;28;20116;-90
2023/07/04 19:29:47;;;;;;;7.38;4.65;;;;;;;;;;8247339;28;20067;-82
2023/07/04 19:33:52;;;;;;;7.20;4.50;;;;;;;;;;8246863;28;20058;-90
2023/07/04 19:37:56;;;;;;;8.95;4.90;;;;;;;;;;8231786;28;20417;-91
2023/07/04 19:42:05;;;;;;;10.82;5.03;;;;;;;;;;8257482;28;20055;-89
2023/07/04 19:46:14;;;;;;;9.70;5.97;;;;;;;;;;8246244;28;20541;-90
2023/07/04 19:50:20;;;;;;;10.93;4.80;;;;;;;;;;8245704;28;20060;-86
2023/07/04 19:54:24;;;;;;;12.88;5.80;;;;;;;;;;8246282;28;20116;-89
2023/07/04 19:58:29;;;;;;;9.18;5.10;;;;;;;;;;8247921;28;20530;-89
2023/07/04 20:02:33;;;;;;;7.97;4.55;;;;;;;;;;8244973;28;20498;-89
2023/07/04 20:06:37;;;;;;;9.38;5.50;;;;;;;;;;8244320;28;20051;-87
2023/07/04 20:10:42;;;;;;;10.20;4.80;;;;;;;;;;8240850;28;20134;-85
2023/07/04 20:14:47;;;;;;;9.25;5.05;;;;;;;;;;8262834;28;20418;-89
2023/07/04 20:18:51;;;;;;;7.78;4.65;;;;;;;;;;8270064;28;20458;-90
2023/07/04 20:22:56;;;;;;;11.45;5.65;;;;;;;;;;8268570;28;20081;-89
2023/07/04 20:27:00;;;;;;;10.00;5.13;;;;;;;;;;8268458;28;20125;-89
2023/07/04 20:31:06;;;;;;;9.70;5.32;;;;;;;;;;8268020;28;20125;-89
2023/07/04 20:35:10;;;;;;;13.52;5.88;;;;;;;;;;8268165;28;20053;-90
2023/07/04 20:39:14;;;;;;;11.13;5.70;;;;;;;;;;8255243;28;20134;-90
2023/07/04 20:43:19;;;;;;;9.57;5.18;;;;;;;;;;8268107;28;20108;-90
2023/07/04 20:47:24;;;;;;;9.05;5.63;;;;;;;;;;8268281;28;20402;-90
2023/07/04 20:51:27;;;;;;;12.75;6.78;;;;;;;;;;8268246;28;20062;-89
2023/07/04 20:55:30;;;;;;;8.77;5.75;;;;;;;;;;8266607;28;20133;-90
2023/07/04 20:59:34;;;;;;;10.15;5.88;;;;;;;;;;8267836;28;20422;-90
2023/07/04 21:03:38;;;;;;;9.27;6.05;;;;;;;;;;8254820;28;20441;-90
2023/07/04 21:07:43;;;;;;;8.20;5.38;;;;;;;;;;8255964;28;20077;-90
2023/07/04 21:11:46;;;;;;;8.07;5.70;;;;;;;;;;8253774;28;20062;-90
2023/07/04 21:15:49;;;;;;;12.45;6.60;;;;;;;;;;8267170;28;20058;-91
2023/07/04 21:19:54;;;;;;;10.73;6.75;;;;;;;;;;8254356;28;20498;-89
2023/07/04 21:23:57;;;;;;;9.10;5.68;;;;;;;;;;8267014;28;20137;-89
2023/07/04 21:27:59;;;;;;;10.57;5.85;;;;;;;;;;8266881;28;20108;-91
2023/07/04 21:32:02;;;;;;;12.45;7.80;;;;;;;;;;8266896;28;20490;-89
2023/07/04 21:36:07;;;;;;;8.90;5.68;;;;;;;;;;8266746;28;20060;-90
2023/07/04 21:40:12;;;;;;;8.52;5.70;;;;;;;;;;8266430;28;20054;-90
2023/07/04 21:44:14;;;;;;;12.52;6.00;;;;;;;;;;8236295;28;20089;-91
2023/07/04 21:48:17;;;;;;;7.90;5.97;;;;;;;;;;8255398;28;20124;-90
2023/07/04 21:52:21;;;;;;;9.00;5.75;;;;;;;;;;8251821;28;20050;-91
2023/07/04 21:56:24;;;;;;;11.63;6.20;;;;;;;;;;8266429;28;20137;-90
2023/07/04 22:00:27;;;;;;;11.55;6.35;;;;;;;;;;8266124;28;20086;-89
2023/07/04 22:04:30;;;;;;;10.07;6.22;;;;;;;;;;8254578;28;20137;-91
2023/07/04 22:08:35;;;;;;;7.85;5.43;;;;;;;;;;8251808;28;20125;-91
2023/07/04 22:12:38;;;;;;;10.20;6.18;;;;;;;;;;8253820;28;20051;-90
2023/07/04 22:16:41;;;;;;;10.55;7.13;;;;;;;;;;8252752;28;20685;-91
2023/07/04 22:20:45;;;;;;;10.77;5.88;;;;;;;;;;8265678;28;20131;-89
2023/07/04 22:24:49;;;;;;;10.25;6.47;;;;;;;;;;8265762;28;20542;-91
2023/07/04 22:28:52;;;;;;;12.70;7.05;;;;;;;;;;8265817;28;20137;-89
2023/07/04 22:32:55;;;;;;;9.55;6.70;;;;;;;;;;8252908;28;20105;-89
2023/07/04 22:36:58;;;;;;;11.70;6.35;;;;;;;;;;8252515;28;20065;-90
2023/07/04 22:41:02;;;;;;;11.00;6.68;;;;;;;;;;8252376;28;20096;-91
2023/07/04 22:45:05;;;;;;;14.70;7.13;;;;;;;;;;8252557;28;20077;-91
2023/07/04 22:49:08;;;;;;;11.30;6.93;;;;;;;;;;8234729;28;20058;-89
2023/07/04 22:53:11;;;;;;;11.75;6.72;;;;;;;;;;8265104;28;20050;-91
2023/07/04 22:57:15;;;;;;;10.88;6.60;;;;;;;;;;8265229;28;20129;-90
2023/07/04 23:01:20;;;;;;;9.90;6.72;;;;;;;;;;8252148;28;20141;-91
2023/07/04 23:05:23;;;;;;;14.35;6.82;;;;;;;;;;8246265;28;20062;-90
2023/07/04 23:09:26;;;;;;;11.60;7.60;;;;;;;;;;8258174;28;20054;-91
2023/07/04 23:13:30;;;;;;;11.27;7.07;;;;;;;;;;8264898;28;20141;-90
2023/07/04 23:17:33;;;;;;;11.15;7.07;;;;;;;;;;8265385;28;20061;-90
2023/07/04 23:21:36;;;;;;;11.85;7.60;;;;;;;;;;8271641;28;20452;-91
2023/07/04 23:25:39;;;;;;;13.70;7.82;;;;;;;;;;8271627;28;20668;-91
2023/07/04 23:29:43;;;;;;;11.05;7.03;;;;;;;;;;8271039;28;20536;-89
2023/07/04 23:33:47;;;;;;;13.23;7.57;;;;;;;;;;8271329;28;20054;-90
2023/07/04 23:37:50;;;;;;;12.45;7.88;;;;;;;;;;8271098;28;20054;-91
2023/07/04 23:41:53;;;;;;;13.23;6.90;;;;;;;;;;8270918;28;20058;-90
2023/07/04 23:45:57;;;;;;;13.73;7.90;;;;;;;;;;8257611;28;20129;-90
2023/07/04 23:50:00;;;;;;;14.93;7.45;;;;;;;;;;8258612;28;20089;-90
2023/07/04 23:54:03;;;;;;;12.40;7.85;;;;;;;;;;8269770;28;20058;-90
2023/07/04 23:58:06;;;;;;;12.80;7.82;;;;;;;;;;8270930;28;20112;-89
